Time;durP1;ratioP1;P1;durP2;ratioP2;P2;SDS_P1;SDS_P2;PMS_P1;PMS_P2;Temp;Humidity;BMP_temperature;BMP_pressure;BME280_temperature;BME280_humidity;BME280_pressure;Samples;Min_cycle;Max_cycle;Signal;HPM_P1;HPM_P2
2022/12/23 00:02:20;;;;;;;41.77;20.87;;;5.20;99.90;;;;;;6190217;23;20166;-75
2022/12/23 00:04:47;;;;;;;38.43;19.77;;;5.20;99.90;;;;;;6189764;23;20616;-79
2022/12/23 00:07:14;;;;;;;40.50;20.20;;;5.20;99.90;;;;;;6189842;23;20613;-75
2022/12/23 00:09:41;;;;;;;38.70;19.63;;;5.20;99.90;;;;;;6190126;23;20208;-71
2022/12/23 00:15:05;;;;;;;39.50;20.53;;;5.20;99.90;;;;;;6099944;23;20198;-77
2022/12/23 00:17:34;;;;;;;40.50;20.40;;;5.20;99.90;;;;;;6099990;23;20207;-75
2022/12/23 00:20:03;;;;;;;40.13;20.03;;;5.20;99.90;;;;;;6100441;23;20610;-72
2022/12/23 00:25:18;;;;;;;39.87;19.73;;;5.30;99.90;;;;;;6124599;23;20268;-74
2022/12/23 00:28:00;;;;;;;37.93;18.67;;;5.30;99.90;;;;;;6100596;23;20210;-85
2022/12/23 00:30:27;;;;;;;40.03;19.27;;;5.30;99.90;;;;;;6151352;23;20174;-88
2022/12/23 00:32:54;;;;;;;32.30;17.73;;;5.30;99.90;;;;;;6191290;23;20585;-87
2022/12/23 00:35:21;;;;;;;36.60;18.73;;;5.30;99.90;;;;;;6190904;23;20188;-83
2022/12/23 00:37:48;;;;;;;35.70;18.73;;;5.40;99.90;;;;;;6189389;23;20565;-73
2022/12/23 00:43:01;;;;;;;35.87;18.23;;;5.40;99.90;;;;;;6216285;23;20195;-74
2022/12/23 00:45:28;;;;;;;40.53;18.70;;;5.50;99.90;;;;;;6189305;23;20205;-74
2022/12/23 00:50:40;;;;;;;38.80;20.17;;;5.50;99.90;;;;;;6190741;23;20185;-83
2022/12/23 00:53:07;;;;;;;40.10;19.60;;;5.50;99.90;;;;;;6190857;23;20171;-85
2022/12/23 00:55:34;;;;;;;47.33;21.07;;;5.50;99.90;;;;;;6190063;23;20285;-81
2022/12/23 00:58:01;;;;;;;43.07;20.37;;;5.60;99.90;;;;;;6189817;23;20215;-89
2022/12/23 01:06:02;;;;;;;45.83;21.50;;;5.60;99.90;;;;;;6189064;23;20178;-82
2022/12/23 01:08:29;;;;;;;46.93;21.07;;;5.60;99.90;;;;;;6190002;23;20163;-77
2022/12/23 01:10:56;;;;;;;47.33;21.70;;;5.60;99.90;;;;;;6215674;23;20178;-75
2022/12/23 01:13:23;;;;;;;50.43;22.43;;;5.60;99.90;;;;;;6189465;23;20179;-77
2022/12/23 01:15:50;;;;;;;47.13;22.13;;;5.60;99.90;;;;;;6189103;23;20508;-77
2022/12/23 01:18:17;;;;;;;45.47;21.10;;;5.60;99.90;;;;;;6215809;23;20194;-81
2022/12/23 01:20:44;;;;;;;51.07;21.83;;;5.60;99.90;;;;;;6164789;23;20197;-74
2022/12/23 01:23:11;;;;;;;56.93;22.87;;;5.70;99.90;;;;;;6189456;23;20203;-74
2022/12/23 01:25:38;;;;;;;52.13;22.13;;;5.70;99.90;;;;;;6215583;23;20198;-83
2022/12/23 01:28:05;;;;;;;54.67;22.23;;;5.60;99.90;;;;;;6188947;23;20175;-77
2022/12/23 01:30:32;;;;;;;52.83;23.27;;;5.60;99.90;;;;;;6189476;23;20176;-75
2022/12/23 01:32:59;;;;;;;53.57;22.43;;;5.60;99.90;;;;;;6189057;23;20177;-81
2022/12/23 01:35:26;;;;;;;58.47;22.87;;;5.70;99.90;;;;;;6215369;23;20184;-81
2022/12/23 01:37:53;;;;;;;57.07;23.27;;;5.70;99.90;;;;;;6216151;23;20175;-83
2022/12/23 01:40:20;;;;;;;57.73;22.90;;;5.70;99.90;;;;;;6188764;23;20259;-87
2022/12/23 01:42:47;;;;;;;52.07;21.20;;;5.70;99.90;;;;;;6188828;23;20627;-86
2022/12/23 01:45:18;;;;;;;54.00;22.60;;;5.70;99.90;;;;;;6188813;23;20170;-90
2022/12/23 01:47:48;;;;;;;55.60;21.67;;;5.70;99.90;;;;;;6189071;23;20472;-82
2022/12/23 01:50:34;;;;;;;64.77;22.30;;;5.70;99.90;;;;;;6215773;23;20161;-91
2022/12/23 01:53:10;;;;;;;53.93;22.07;;;5.70;99.90;;;;;;6189235;23;20638;-82
2022/12/23 01:55:46;;;;;;;56.53;22.13;;;5.70;99.90;;;;;;6188642;23;20278;-86
2022/12/23 01:58:32;;;;;;;51.27;21.00;;;5.70;99.90;;;;;;6188979;23;20653;-83
2022/12/23 02:03:48;;;;;;;56.13;22.47;;;5.80;99.90;;;;;;6215644;23;20244;-87
2022/12/23 02:09:16;;;;;;;53.67;21.40;;;5.70;99.90;;;;;;6188675;23;20246;-76
2022/12/23 02:12:11;;;;;;;55.20;21.57;;;5.70;99.90;;;;;;6188761;23;20264;-75
2022/12/23 02:18:27;;;;;;;53.50;21.63;;;5.70;99.90;;;;;;6215550;23;20193;-75
2022/12/23 02:21:39;;;;;;;48.30;20.60;;;5.70;99.90;;;;;;6189212;23;20173;-74
2022/12/23 02:24:28;;;;;;;59.00;22.00;;;5.70;99.90;;;;;;6212507;23;20527;-74
2022/12/23 02:27:17;;;;;;;53.43;21.93;;;5.70;99.90;;;;;;6214770;23;20172;-77
2022/12/23 02:30:18;;;;;;;53.57;21.53;;;5.70;99.90;;;;;;6188925;23;20173;-74
2022/12/23 02:33:17;;;;;;;56.83;22.00;;;5.80;99.90;;;;;;6217303;23;20212;-81
2022/12/23 02:36:09;;;;;;;58.40;21.83;;;5.70;99.90;;;;;;6190389;23;20203;-87
2022/12/23 02:39:06;;;;;;;51.30;20.97;;;5.70;99.90;;;;;;6217247;23;20216;-82
2022/12/23 02:41:36;;;;;;;50.43;20.87;;;5.70;99.90;;;;;;6190395;23;20202;-76
2022/12/23 02:44:20;;;;;;;51.60;20.53;;;5.70;99.90;;;;;;6190567;23;20247;-80
2022/12/23 02:46:54;;;;;;;52.03;21.20;;;5.70;99.90;;;;;;6190548;23;20472;-85
2022/12/23 02:49:31;;;;;;;48.77;20.67;;;5.70;99.90;;;;;;6217171;23;20210;-86
2022/12/23 02:52:02;;;;;;;50.07;21.67;;;5.70;99.90;;;;;;6191133;23;20187;-82
2022/12/23 02:54:32;;;;;;;50.30;20.70;;;5.70;99.90;;;;;;6190515;23;20167;-86
2022/12/23 02:57:02;;;;;;;50.07;19.90;;;5.80;99.90;;;;;;6190387;23;20206;-82
2022/12/23 02:59:35;;;;;;;48.47;20.73;;;5.80;99.90;;;;;;6185460;23;20201;-84
2022/12/23 03:02:02;;;;;;;49.37;20.33;;;5.80;99.90;;;;;;6185583;23;20173;-87
2022/12/23 03:04:29;;;;;;;46.53;19.80;;;5.80;99.90;;;;;;6185845;23;20543;-87
2022/12/23 03:06:58;;;;;;;46.20;20.50;;;5.90;99.90;;;;;;6186796;23;20170;-75
2022/12/23 03:10:22;;;;;;;43.30;19.40;;;5.90;99.90;;;;;;6186019;23;20204;-80
2022/12/23 03:13:29;;;;;;;46.63;19.00;;;5.80;99.90;;;;;;6170555;23;20685;-81
2022/12/23 03:16:02;;;;;;;45.53;18.77;;;5.80;99.90;;;;;;6095674;23;20251;-86
2022/12/23 03:18:34;;;;;;;43.70;19.00;;;5.90;99.90;;;;;;6095754;23;20174;-84
2022/12/23 03:21:20;;;;;;;42.90;19.03;;;5.90;99.90;;;;;;6072072;23;20199;-76
2022/12/23 03:23:50;;;;;;;44.77;20.27;;;6.00;99.90;;;;;;6071840;23;20172;-86
2022/12/23 03:26:37;;;;;;;43.20;18.23;;;6.00;99.90;;;;;;6095571;23;20202;-86
2022/12/23 03:29:18;;;;;;;48.27;19.63;;;5.90;99.90;;;;;;6094234;23;20203;-82
2022/12/23 03:31:46;;;;;;;45.23;19.00;;;6.00;99.90;;;;;;6095954;23;20235;-85
2022/12/23 03:34:21;;;;;;;42.17;18.73;;;6.00;99.90;;;;;;6071493;23;20181;-86
2022/12/23 03:36:51;;;;;;;40.57;18.47;;;6.00;99.90;;;;;;6095621;23;20193;-81
2022/12/23 03:39:22;;;;;;;39.70;17.53;;;6.00;99.90;;;;;;6071446;23;20206;-90
2022/12/23 03:41:59;;;;;;;38.77;17.43;;;6.00;99.90;;;;;;6071463;23;20228;-74
2022/12/23 03:44:33;;;;;;;36.30;17.47;;;6.10;99.90;;;;;;6071487;23;20239;-76
2022/12/23 03:47:09;;;;;;;33.47;15.97;;;6.10;99.90;;;;;;6071498;23;20166;-79
2022/12/23 03:49:49;;;;;;;35.13;16.20;;;6.10;99.90;;;;;;6071367;23;20205;-76
2022/12/23 03:52:21;;;;;;;35.47;16.13;;;6.10;99.90;;;;;;6166554;23;20180;-78
2022/12/23 03:54:53;;;;;;;30.97;15.40;;;6.10;99.90;;;;;;6185005;23;20186;-75
2022/12/23 03:57:24;;;;;;;35.77;16.20;;;6.10;99.90;;;;;;6184517;23;20198;-74
2022/12/23 03:59:52;;;;;;;36.57;15.77;;;6.10;99.90;;;;;;6185324;23;20508;-83
2022/12/23 04:02:37;;;;;;;36.27;16.50;;;6.10;99.90;;;;;;6184941;23;20547;-74
2022/12/23 04:05:25;;;;;;;39.13;17.83;;;6.10;99.90;;;;;;6184893;23;20168;-80
2022/12/23 04:08:00;;;;;;;39.67;17.63;;;6.10;99.90;;;;;;6186265;23;20326;-74
2022/12/23 04:10:28;;;;;;;38.67;18.67;;;6.20;99.90;;;;;;6184647;23;20181;-82
2022/12/23 04:12:56;;;;;;;37.93;17.50;;;6.20;99.90;;;;;;6160564;23;20170;-78
2022/12/23 04:15:25;;;;;;;37.53;18.60;;;6.20;99.90;;;;;;6184863;23;20200;-76
2022/12/23 04:17:53;;;;;;;38.10;17.80;;;6.30;99.90;;;;;;6184888;23;20191;-76
2022/12/23 04:20:21;;;;;;;36.67;17.83;;;6.20;99.90;;;;;;6184858;23;20169;-76
2022/12/23 04:22:48;;;;;;;42.97;19.37;;;6.20;99.90;;;;;;6185645;23;20254;-89
2022/12/23 04:25:16;;;;;;;38.23;17.60;;;6.20;99.90;;;;;;6184932;23;20190;-88
2022/12/23 04:27:43;;;;;;;38.20;18.43;;;6.20;99.90;;;;;;6186515;23;20181;-87
2022/12/23 04:30:12;;;;;;;41.20;18.23;;;6.30;99.90;;;;;;6184615;23;20200;-88
2022/12/23 04:32:40;;;;;;;39.50;18.33;;;6.30;99.90;;;;;;6185329;23;20174;-89
2022/12/23 04:35:08;;;;;;;42.00;19.67;;;6.30;99.90;;;;;;6184279;23;20246;-88
2022/12/23 04:37:35;;;;;;;40.03;17.60;;;6.20;99.90;;;;;;6184626;23;20274;-80
2022/12/23 04:40:03;;;;;;;46.47;19.37;;;6.20;99.90;;;;;;6185057;23;20165;-89
2022/12/23 04:42:30;;;;;;;40.47;19.37;;;6.20;99.90;;;;;;6184598;23;20231;-90
2022/12/23 04:44:57;;;;;;;38.70;18.17;;;6.20;99.90;;;;;;6184466;23;20236;-87
2022/12/23 04:47:24;;;;;;;41.70;19.33;;;6.30;99.90;;;;;;6184521;23;20162;-73
2022/12/23 04:49:51;;;;;;;39.43;18.53;;;6.30;99.90;;;;;;6184496;23;20205;-77
2022/12/23 04:52:18;;;;;;;38.50;17.73;;;6.30;99.90;;;;;;6184442;23;20205;-74
2022/12/23 04:54:45;;;;;;;35.07;17.00;;;6.20;99.90;;;;;;6184197;23;20169;-77
2022/12/23 04:57:13;;;;;;;35.83;17.37;;;6.20;99.90;;;;;;6183919;23;20199;-79
2022/12/23 04:59:41;;;;;;;40.90;18.00;;;6.20;99.90;;;;;;6212614;23;20290;-76
2022/12/23 05:02:08;;;;;;;39.20;17.73;;;6.20;99.90;;;;;;6189289;23;20187;-82
2022/12/23 05:04:36;;;;;;;36.67;17.03;;;6.10;99.90;;;;;;6215539;23;20192;-82
2022/12/23 05:07:03;;;;;;;37.03;17.73;;;6.20;99.90;;;;;;6215665;23;20192;-82
2022/12/23 05:09:31;;;;;;;36.83;17.43;;;6.10;99.90;;;;;;6189428;23;20221;-77
2022/12/23 05:11:58;;;;;;;37.70;17.07;;;6.10;99.90;;;;;;6216013;23;20174;-73
2022/12/23 05:14:25;;;;;;;39.37;17.40;;;6.00;99.90;;;;;;6215709;23;20192;-76
2022/12/23 05:16:52;;;;;;;36.63;16.97;;;6.00;99.90;;;;;;6215912;23;20196;-76
2022/12/23 05:19:20;;;;;;;38.30;16.90;;;6.10;99.90;;;;;;6215480;23;20248;-77
2022/12/23 05:21:47;;;;;;;35.13;16.60;;;6.10;99.90;;;;;;6216368;23;20165;-74
2022/12/23 05:24:14;;;;;;;35.20;16.87;;;6.10;99.90;;;;;;6189275;23;20225;-75
2022/12/23 05:26:41;;;;;;;38.87;16.27;;;6.00;99.90;;;;;;6214253;23;20178;-81
2022/12/23 05:29:16;;;;;;;35.67;16.77;;;6.00;99.90;;;;;;6189571;23;20769;-77
2022/12/23 05:31:43;;;;;;;33.77;16.70;;;6.00;99.90;;;;;;6216071;23;20212;-76
2022/12/23 05:34:10;;;;;;;34.50;16.77;;;6.00;99.90;;;;;;6189335;23;20170;-78
2022/12/23 05:36:37;;;;;;;32.57;15.97;;;6.00;99.90;;;;;;6215517;23;20494;-76
2022/12/23 05:39:05;;;;;;;36.93;16.30;;;6.00;99.90;;;;;;6188829;23;20248;-77
2022/12/23 05:41:32;;;;;;;34.37;16.37;;;6.00;99.90;;;;;;6189476;23;20176;-87
2022/12/23 05:43:59;;;;;;;33.17;15.93;;;6.00;99.90;;;;;;6189856;23;20273;-87
2022/12/23 05:46:26;;;;;;;32.03;16.33;;;5.90;99.90;;;;;;6215430;23;20165;-85
2022/12/23 05:48:53;;;;;;;33.50;15.80;;;5.90;99.90;;;;;;6215736;23;20179;-78
2022/12/23 05:51:20;;;;;;;34.10;16.30;;;5.90;99.90;;;;;;6188987;23;20536;-80
2022/12/23 05:53:47;;;;;;;35.80;16.30;;;5.90;99.90;;;;;;6189374;23;20176;-86
2022/12/23 05:56:14;;;;;;;34.23;15.90;;;5.90;99.90;;;;;;6215249;23;20173;-80
2022/12/23 05:58:41;;;;;;;31.07;15.90;;;5.90;99.90;;;;;;6189158;23;20221;-81
2022/12/23 06:01:08;;;;;;;35.27;16.03;;;5.80;99.90;;;;;;6188757;23;20169;-85
2022/12/23 06:03:35;;;;;;;36.40;16.97;;;5.80;99.90;;;;;;6188881;23;20205;-85
2022/12/23 06:06:02;;;;;;;35.20;17.47;;;5.80;99.90;;;;;;6190665;23;20166;-85
2022/12/23 06:08:29;;;;;;;34.53;17.00;;;5.80;99.90;;;;;;6191346;23;20210;-85
2022/12/23 06:10:56;;;;;;;36.57;17.13;;;5.80;99.90;;;;;;6217356;23;20178;-85
2022/12/23 06:13:23;;;;;;;33.67;16.97;;;5.80;99.90;;;;;;6190897;23;20259;-75
2022/12/23 06:15:50;;;;;;;33.00;16.83;;;5.80;99.90;;;;;;6190507;23;20161;-74
2022/12/23 06:18:17;;;;;;;35.97;17.73;;;5.80;99.90;;;;;;6190961;23;20192;-77
2022/12/23 06:20:47;;;;;;;35.20;17.80;;;5.80;99.90;;;;;;6217480;23;20498;-74
2022/12/23 06:23:13;;;;;;;35.57;17.67;;;5.70;99.90;;;;;;6217716;23;20211;-75
2022/12/23 06:25:41;;;;;;;36.73;17.80;;;5.60;99.90;;;;;;6190485;23;20233;-75
2022/12/23 06:28:07;;;;;;;35.67;18.00;;;5.60;99.90;;;;;;6190394;23;20684;-74
2022/12/23 06:30:34;;;;;;;36.53;18.43;;;5.60;99.90;;;;;;6190881;23;20170;-76
2022/12/23 06:33:01;;;;;;;35.70;17.73;;;5.70;99.90;;;;;;6190719;23;20603;-78
2022/12/23 06:35:28;;;;;;;36.10;17.87;;;5.70;99.90;;;;;;6190746;23;20165;-79
2022/12/23 06:37:55;;;;;;;34.87;18.37;;;5.70;99.90;;;;;;6217179;23;20189;-86
2022/12/23 06:40:22;;;;;;;38.77;18.80;;;5.60;99.90;;;;;;6190632;23;20170;-85
2022/12/23 06:42:49;;;;;;;34.57;18.23;;;5.60;99.90;;;;;;6193042;23;20178;-87
2022/12/23 06:45:16;;;;;;;40.77;18.60;;;5.60;99.90;;;;;;6190644;23;20164;-86
2022/12/23 06:47:44;;;;;;;35.97;18.73;;;5.60;99.90;;;;;;6190976;23;20199;-88
2022/12/23 06:50:11;;;;;;;37.10;18.53;;;5.60;99.90;;;;;;6190677;23;20290;-74
2022/12/23 06:52:38;;;;;;;34.97;18.47;;;5.60;99.90;;;;;;6190447;23;20167;-79
2022/12/23 06:55:05;;;;;;;40.37;19.13;;;5.50;99.90;;;;;;6190553;23;20172;-74
2022/12/23 06:57:32;;;;;;;35.30;17.33;;;5.50;99.90;;;;;;6190336;23;20197;-79
2022/12/23 06:59:59;;;;;;;34.53;17.73;;;5.50;99.90;;;;;;6192738;23;20164;-79
2022/12/23 07:02:26;;;;;;;35.60;17.70;;;5.50;99.90;;;;;;6219454;23;20174;-76
2022/12/23 07:04:56;;;;;;;37.67;18.60;;;5.50;99.90;;;;;;6191547;23;20168;-77
2022/12/23 07:07:23;;;;;;;35.93;17.33;;;5.50;99.90;;;;;;6217715;23;20168;-81
2022/12/23 07:09:50;;;;;;;35.87;17.93;;;5.50;99.90;;;;;;6190370;23;20253;-82
2022/12/23 07:12:18;;;;;;;34.97;18.03;;;5.40;99.90;;;;;;6190147;23;20172;-75
2022/12/23 07:14:45;;;;;;;30.43;16.93;;;5.40;99.90;;;;;;6189988;23;20175;-78
2022/12/23 07:17:12;;;;;;;33.90;18.30;;;5.40;99.90;;;;;;6189705;23;20184;-81
2022/12/23 07:19:40;;;;;;;34.13;18.00;;;5.40;99.90;;;;;;6190181;23;20255;-83
2022/12/23 07:22:11;;;;;;;34.67;18.27;;;5.40;99.90;;;;;;6190212;23;20165;-78
2022/12/23 07:24:38;;;;;;;34.07;18.27;;;5.40;99.90;;;;;;6190061;23;20199;-80
2022/12/23 07:27:05;;;;;;;33.63;18.03;;;5.40;99.90;;;;;;6216618;23;20224;-81
2022/12/23 07:29:32;;;;;;;33.70;17.17;;;5.50;99.90;;;;;;6190262;23;20629;-82
2022/12/23 07:32:01;;;;;;;32.83;17.67;;;5.50;99.90;;;;;;6190098;23;20608;-84
2022/12/23 07:34:28;;;;;;;33.70;17.50;;;5.40;99.90;;;;;;6190053;23;20223;-84
2022/12/23 07:36:55;;;;;;;34.27;18.07;;;5.40;99.90;;;;;;6190160;23;20191;-80
2022/12/23 07:39:22;;;;;;;32.80;17.13;;;5.40;99.90;;;;;;6216405;23;20164;-79
2022/12/23 07:41:49;;;;;;;35.03;17.63;;;5.40;99.90;;;;;;6189908;23;20258;-81
2022/12/23 07:44:29;;;;;;;31.17;16.17;;;5.50;99.90;;;;;;6189925;23;20174;-83
2022/12/23 07:46:56;;;;;;;33.73;17.10;;;5.50;99.90;;;;;;6190363;23;20496;-81
2022/12/23 07:49:23;;;;;;;31.67;17.37;;;5.50;99.90;;;;;;6190003;23;20156;-79
2022/12/23 07:51:50;;;;;;;36.17;18.17;;;5.50;99.90;;;;;;6190145;23;20203;-81
2022/12/23 07:54:17;;;;;;;33.63;17.20;;;5.50;99.90;;;;;;6216476;23;20160;-85
2022/12/23 07:56:44;;;;;;;34.87;17.43;;;5.50;99.90;;;;;;6215976;23;20500;-77
2022/12/23 07:59:11;;;;;;;33.83;17.47;;;5.50;99.90;;;;;;6189742;23;20282;-74
2022/12/23 08:01:37;;;;;;;37.13;18.70;;;5.50;99.90;;;;;;6189857;23;20246;-75
2022/12/23 08:04:05;;;;;;;35.77;17.70;;;5.40;99.90;;;;;;6189856;23;20179;-74
2022/12/23 08:06:35;;;;;;;37.93;18.57;;;5.50;99.90;;;;;;6216274;23;20163;-75
2022/12/23 08:09:02;;;;;;;34.60;17.83;;;5.50;99.90;;;;;;6189619;23;20184;-74
2022/12/23 08:11:29;;;;;;;39.60;18.27;;;5.40;99.90;;;;;;6189659;23;20199;-81
2022/12/23 08:13:56;;;;;;;38.33;17.60;;;5.30;99.90;;;;;;6216062;23;20166;-81
2022/12/23 08:16:23;;;;;;;39.57;18.20;;;5.40;99.90;;;;;;6189473;23;20169;-82
2022/12/23 08:18:50;;;;;;;39.43;19.40;;;5.30;99.90;;;;;;6189527;23;20630;-81
2022/12/23 08:21:18;;;;;;;37.13;18.30;;;5.30;99.90;;;;;;6189945;23;20261;-83
2022/12/23 08:23:47;;;;;;;37.67;18.50;;;5.40;99.90;;;;;;6216222;23;20173;-77
2022/12/23 08:26:16;;;;;;;39.73;18.37;;;5.40;99.90;;;;;;6189348;23;20167;-82
2022/12/23 08:28:44;;;;;;;36.23;17.93;;;5.50;99.90;;;;;;6189153;23;20173;-77
2022/12/23 08:31:23;;;;;;;39.33;18.47;;;5.60;99.90;;;;;;6189826;23;20189;-78
2022/12/23 08:33:53;;;;;;;37.80;18.17;;;5.60;99.90;;;;;;6189794;23;20233;-79
2022/12/23 08:36:29;;;;;;;39.00;17.50;;;5.60;99.90;;;;;;6189340;23;20569;-76
2022/12/23 08:39:01;;;;;;;38.60;18.17;;;5.60;99.90;;;;;;6189302;23;20214;-80
2022/12/23 08:41:30;;;;;;;35.60;17.43;;;5.70;99.90;;;;;;6217380;23;20487;-78
2022/12/23 08:43:58;;;;;;;39.80;18.60;;;5.70;99.90;;;;;;6189362;23;20186;-82
2022/12/23 08:46:58;;;;;;;37.40;18.40;;;5.80;99.90;;;;;;6190174;23;20169;-83
2022/12/23 08:49:25;;;;;;;35.77;17.40;;;5.80;99.90;;;;;;6153687;23;20175;-88
2022/12/23 08:51:54;;;;;;;35.57;17.80;;;5.90;99.90;;;;;;6154280;23;20245;-79
2022/12/23 08:54:22;;;;;;;33.97;17.37;;;6.00;99.90;;;;;;6155434;23;20254;-92
2022/12/23 08:56:50;;;;;;;35.73;17.13;;;5.90;99.90;;;;;;6156332;23;20186;-89
2022/12/23 08:59:22;;;;;;;34.27;17.60;;;6.00;99.90;;;;;;6128680;23;20213;-82
2022/12/23 09:01:49;;;;;;;34.93;17.43;;;6.10;99.90;;;;;;6128633;23;20174;-75
2022/12/23 09:04:16;;;;;;;35.50;18.20;;;6.10;99.90;;;;;;6128952;23;20479;-77
2022/12/23 09:06:50;;;;;;;34.50;17.27;;;6.20;99.90;;;;;;6153616;23;20246;-76
2022/12/23 09:09:17;;;;;;;34.07;17.43;;;6.10;99.90;;;;;;6129270;23;20214;-86
2022/12/23 09:11:47;;;;;;;36.90;18.23;;;6.20;99.90;;;;;;6153589;23;20282;-81
2022/12/23 09:14:14;;;;;;;35.40;17.03;;;6.10;99.90;;;;;;6129550;23;20178;-75
2022/12/23 09:16:44;;;;;;;32.57;17.07;;;6.20;99.90;;;;;;6128647;23;20269;-77
2022/12/23 09:19:11;;;;;;;34.80;17.17;;;6.30;99.90;;;;;;6128490;23;20264;-75
2022/12/23 09:21:39;;;;;;;32.47;16.87;;;6.30;99.90;;;;;;6128622;23;20173;-75
2022/12/23 09:24:06;;;;;;;30.50;17.27;;;6.40;99.90;;;;;;6153340;23;20161;-77
2022/12/23 09:26:34;;;;;;;35.53;16.90;;;6.30;99.90;;;;;;6159341;23;20178;-75
2022/12/23 09:29:03;;;;;;;35.67;17.07;;;6.30;99.90;;;;;;6159473;23;20260;-75
2022/12/23 09:31:30;;;;;;;33.93;16.93;;;6.30;99.90;;;;;;6185846;23;20220;-85
2022/12/23 09:34:04;;;;;;;34.77;16.60;;;6.40;99.90;;;;;;6161107;23;20170;-75
2022/12/23 09:36:31;;;;;;;33.27;16.30;;;6.30;99.90;;;;;;6184541;23;20178;-82
2022/12/23 09:38:58;;;;;;;32.30;16.80;;;6.30;99.90;;;;;;6183709;23;20191;-77
2022/12/23 09:41:47;;;;;;;34.90;17.13;;;6.40;99.90;;;;;;6183922;23;20173;-83
2022/12/23 09:44:35;;;;;;;34.33;16.67;;;6.40;99.90;;;;;;6184125;23;20394;-82
2022/12/23 09:47:09;;;;;;;33.07;16.27;;;6.60;99.90;;;;;;6159678;23;20168;-76
2022/12/23 09:50:00;;;;;;;34.53;17.17;;;6.50;99.90;;;;;;6185166;23;20180;-85
2022/12/23 09:52:44;;;;;;;33.17;16.63;;;6.60;99.90;;;;;;6184156;23;20168;-76
2022/12/23 09:55:20;;;;;;;32.40;16.43;;;6.60;99.90;;;;;;6184513;23;20216;-76
2022/12/23 09:57:59;;;;;;;33.20;17.07;;;6.80;99.90;;;;;;6188901;23;20197;-75
2022/12/23 10:00:42;;;;;;;31.33;16.57;;;6.80;99.90;;;;;;6189322;23;20603;-87
2022/12/23 10:03:27;;;;;;;31.30;16.77;;;6.90;99.90;;;;;;6189161;23;20185;-76
2022/12/23 10:06:14;;;;;;;30.40;16.20;;;6.80;99.90;;;;;;6215518;23;20176;-82
2022/12/23 10:08:47;;;;;;;30.23;16.27;;;6.90;99.90;;;;;;6189261;23;20170;-87
2022/12/23 10:11:25;;;;;;;29.97;16.30;;;7.00;99.90;;;;;;6215099;23;20604;-86
2022/12/23 10:14:13;;;;;;;28.97;15.77;;;6.90;99.90;;;;;;6189094;23;20182;-83
2022/12/23 10:16:50;;;;;;;32.17;16.43;;;6.90;99.90;;;;;;6189541;23;20167;-82
2022/12/23 10:19:27;;;;;;;32.43;16.30;;;6.90;99.90;;;;;;6189314;23;20238;-85
2022/12/23 10:22:24;;;;;;;31.73;16.37;;;6.80;99.90;;;;;;6215764;23;20237;-85
2022/12/23 10:24:54;;;;;;;33.27;17.47;;;6.90;99.90;;;;;;6189150;23;20580;-86
2022/12/23 10:27:37;;;;;;;33.50;17.07;;;6.90;99.90;;;;;;6215119;23;20166;-87
2022/12/23 10:30:19;;;;;;;33.77;16.73;;;6.90;99.90;;;;;;6188679;23;20246;-77
2022/12/23 10:33:17;;;;;;;32.07;16.83;;;6.70;99.90;;;;;;6215328;23;20617;-77
2022/12/23 10:36:00;;;;;;;31.67;17.07;;;6.80;99.90;;;;;;6188489;23;20177;-78
2022/12/23 10:38:59;;;;;;;31.50;17.13;;;6.80;99.90;;;;;;6188655;23;20283;-84
2022/12/23 10:41:58;;;;;;;30.03;16.60;;;6.70;99.90;;;;;;6216051;23;20169;-78
2022/12/23 10:44:49;;;;;;;33.00;16.33;;;6.60;99.90;;;;;;6188675;23;20251;-77
2022/12/23 10:47:25;;;;;;;35.47;17.80;;;6.60;99.90;;;;;;6215214;23;20166;-79
2022/12/23 10:50:29;;;;;;;34.87;18.53;;;6.70;99.90;;;;;;6188525;23;20172;-77
2022/12/23 10:53:03;;;;;;;33.97;17.70;;;6.60;99.90;;;;;;6190247;23;20200;-80
2022/12/23 10:55:37;;;;;;;35.17;17.53;;;6.60;99.90;;;;;;6190352;23;20272;-87
2022/12/23 10:58:10;;;;;;;35.87;18.23;;;6.50;99.90;;;;;;6216456;23;20228;-77
2022/12/23 11:00:41;;;;;;;36.50;18.30;;;6.50;99.90;;;;;;6217310;23;20173;-77
2022/12/23 11:03:17;;;;;;;40.43;19.23;;;6.40;99.90;;;;;;6190557;23;20176;-77
2022/12/23 11:05:47;;;;;;;37.77;18.67;;;6.40;99.90;;;;;;6190224;23;20623;-77
2022/12/23 11:08:15;;;;;;;37.00;18.97;;;6.40;99.90;;;;;;6165520;23;20159;-76
2022/12/23 11:10:42;;;;;;;43.13;19.70;;;6.50;99.90;;;;;;6190345;23;20533;-84
2022/12/23 11:13:21;;;;;;;42.00;19.70;;;6.30;99.90;;;;;;6190539;23;20218;-81
2022/12/23 11:15:51;;;;;;;42.50;20.37;;;6.20;99.90;;;;;;6190677;23;20166;-78
2022/12/23 11:18:22;;;;;;;38.23;19.63;;;6.20;99.90;;;;;;6190029;23;20196;-77
2022/12/23 11:21:13;;;;;;;39.80;19.60;;;6.20;99.90;;;;;;6190519;23;20253;-86
2022/12/23 11:23:45;;;;;;;39.93;19.07;;;6.30;99.90;;;;;;6215277;23;20193;-89
2022/12/23 11:26:17;;;;;;;41.13;19.87;;;6.30;99.90;;;;;;6190251;23;20195;-90
2022/12/23 11:28:50;;;;;;;39.53;20.17;;;6.40;99.90;;;;;;6190469;23;20182;-89
2022/12/23 11:31:27;;;;;;;39.20;19.53;;;6.20;99.90;;;;;;6190713;23;20176;-87
2022/12/23 11:34:17;;;;;;;36.87;19.37;;;6.30;99.90;;;;;;6220398;23;20169;-90
2022/12/23 11:36:55;;;;;;;38.87;19.60;;;6.30;99.90;;;;;;6190638;23;20178;-80
2022/12/23 11:39:33;;;;;;;41.10;20.53;;;6.20;99.90;;;;;;6190096;23;20281;-79
2022/12/23 11:42:18;;;;;;;40.37;20.40;;;6.10;99.90;;;;;;6216574;23;20189;-87
2022/12/23 11:44:53;;;;;;;38.80;19.43;;;6.20;99.90;;;;;;6215319;23;20175;-78
2022/12/23 11:47:40;;;;;;;38.73;19.43;;;6.10;99.90;;;;;;6190351;23;20174;-92
2022/12/23 11:50:31;;;;;;;42.27;20.13;;;6.20;99.90;;;;;;6165855;23;20202;-81
2022/12/23 11:53:22;;;;;;;40.73;19.80;;;6.20;99.90;;;;;;6190024;23;20173;-83
2022/12/23 11:56:13;;;;;;;38.70;19.23;;;6.20;99.90;;;;;;6190227;23;20197;-77
2022/12/23 11:58:55;;;;;;;35.73;18.30;;;6.20;99.90;;;;;;6184732;23;20578;-80
2022/12/23 12:01:23;;;;;;;38.67;19.27;;;6.20;99.90;;;;;;6185351;23;20197;-83
2022/12/23 12:03:59;;;;;;;40.63;19.10;;;6.30;99.90;;;;;;6185772;23;20179;-83
2022/12/23 12:06:31;;;;;;;39.60;19.70;;;6.30;99.90;;;;;;6187275;23;20168;-87
2022/12/23 12:09:05;;;;;;;36.20;18.67;;;6.30;99.90;;;;;;6185013;23;20174;-83
2022/12/23 12:11:46;;;;;;;38.90;19.97;;;6.30;99.90;;;;;;6185888;23;20500;-83
2022/12/23 12:14:42;;;;;;;38.27;19.73;;;6.30;99.90;;;;;;6161457;23;20184;-75
2022/12/23 12:17:28;;;;;;;41.00;20.53;;;6.30;99.90;;;;;;6185612;23;20193;-94
2022/12/23 12:20:13;;;;;;;39.97;20.03;;;6.30;99.90;;;;;;6184282;23;20201;-84
2022/12/23 12:22:51;;;;;;;41.43;21.30;;;6.30;99.90;;;;;;6184594;23;20246;-83
2022/12/23 12:25:38;;;;;;;42.13;20.10;;;6.30;99.90;;;;;;6184688;23;20529;-84
2022/12/23 12:28:14;;;;;;;41.50;20.10;;;6.30;99.90;;;;;;6184455;23;20201;-83
2022/12/23 12:30:53;;;;;;;40.47;20.70;;;6.20;99.90;;;;;;6160449;23;20177;-84
2022/12/23 12:33:47;;;;;;;39.73;19.27;;;6.20;99.90;;;;;;6186374;23;20169;-84
2022/12/23 12:36:29;;;;;;;38.87;19.37;;;6.20;99.90;;;;;;6184692;23;20173;-83
2022/12/23 12:38:59;;;;;;;39.47;20.57;;;6.30;99.90;;;;;;6186568;23;20194;-84
2022/12/23 12:41:44;;;;;;;43.43;21.00;;;6.20;99.90;;;;;;6186252;23;20164;-83
2022/12/23 12:44:56;;;;;;;40.10;19.70;;;6.20;99.90;;;;;;6159650;23;20176;-82
2022/12/23 12:47:37;;;;;;;39.77;19.83;;;6.10;99.90;;;;;;6070798;23;20262;-81
2022/12/23 12:50:36;;;;;;;41.77;21.57;;;6.20;99.90;;;;;;6070686;23;20181;-81
2022/12/23 12:53:26;;;;;;;41.60;20.80;;;6.20;99.90;;;;;;6070565;23;20186;-81
2022/12/23 12:56:04;;;;;;;41.93;20.97;;;6.20;99.90;;;;;;6070708;23;20170;-81
2022/12/23 12:58:31;;;;;;;39.70;20.73;;;6.20;99.90;;;;;;6046643;23;20210;-80
2022/12/23 13:01:05;;;;;;;42.20;21.13;;;6.10;99.90;;;;;;6070660;23;20212;-81
2022/12/23 13:03:41;;;;;;;41.37;21.70;;;6.10;99.90;;;;;;6070586;23;20697;-81
2022/12/23 13:06:28;;;;;;;40.57;21.10;;;6.10;99.90;;;;;;6094838;23;20652;-81
2022/12/23 13:09:09;;;;;;;40.97;22.00;;;6.00;99.90;;;;;;6094740;23;20397;-81
2022/12/23 13:11:43;;;;;;;46.10;22.43;;;6.00;99.90;;;;;;6094888;23;20181;-81
2022/12/23 13:14:32;;;;;;;47.37;22.03;;;6.10;99.90;;;;;;6094145;23;20254;-81
2022/12/23 13:17:45;;;;;;;43.63;22.93;;;6.10;99.90;;;;;;6094771;23;20207;-81
2022/12/23 13:20:19;;;;;;;43.03;21.37;;;6.10;99.90;;;;;;5985167;23;20206;-82
2022/12/23 13:22:52;;;;;;;46.53;23.43;;;6.00;99.90;;;;;;5985547;23;20660;-82
2022/12/23 13:25:31;;;;;;;41.57;21.47;;;6.10;99.90;;;;;;6062627;23;20193;-83
2022/12/23 13:28:27;;;;;;;45.80;21.87;;;6.00;99.90;;;;;;6041987;23;20197;-81
2022/12/23 13:31:34;;;;;;;44.07;21.80;;;6.00;99.90;;;;;;6041602;23;20189;-80
2022/12/23 13:34:08;;;;;;;42.73;21.50;;;6.00;99.90;;;;;;6041950;23;20175;-81
2022/12/23 13:36:55;;;;;;;46.87;23.20;;;6.10;99.90;;;;;;6065785;23;20176;-79